New Virginia, Iowa
Current Conditions -  °F | °C
As of 10:15 PM on Thursday 20 Nov 2014 (Local Time) from KI75 Reporting Station
Clear Clear  
Wind Chill: 14°   Ceiling: Unl
Heat Index: 14°   Visibility: 10mi
Dew Point: 10°   Wind: 3mph
Humidity: 85%   Direction: 130°SE
Pressure: 30.28"   Gusts: NA
Location:  41.18°N, 93.73°W
Report Text: KI75 210415Z AUTO 13003KT 10SM CLR M10/M12 A3028 RMK AO2 T11001121
Loading
Personal Weather Stations






























Interactive Weather Map New forecast layout! Learn more

10-Day Weather Forecast

Advertisements
Track Severe Weather on mobile